Airfield :
LOGIN :

Register | Disclaimer

   EN    FR    IT 

 










Legend :    VFR   Marginal VFR   IFR   Intensive IFR   Very Intensive IFR
Visi :
Ceiling :
>= 8 km
>= 3000ft
5 to 8 km
1000 to 3000 ft
1500m to 5 km
500 to 1000 ft
800 to 1500m
200 to 500 ft
< 800m
< 200 ft
Symbols :   Thunderstorms  Fog  Heavy snow  Heavy precipitations  Wind > 20 kt
SIGMETs :     Misc.  Thunderstorms  Icing  Turbulence  Mountain Waves  Volcanic Ashes






- Airport Elevation : 27 ft
- IATA code : PMI


LEPA - Palma de Mallorca

CURRENT METAR :
  • 020800Z 07002KT 9999 FEW016 28/21 Q1013 NOSIG

EXPIRED METARs :
  • 020730Z VRB02KT 9999 FEW014 27/22 Q1013 NOSIG
  • 020700Z VRB02KT 9999 FEW014 27/22 Q1013 NOSIG
  • 020630Z VRB02KT 9999 FEW012 26/23 Q1013 NOSIG
  • 020600Z 04001KT 9999 FEW010 SCT017 25/23 Q1013 NOSIG
  • 020530Z 07002KT 9999 FEW010 24/22 Q1013 NOSIG

TAF TAF LEPA
Valid from the 02 at 06:00 until the 03 at 06:00 UTC


020500Z 0206/0306 VRB03KT 9999 FEW020 TX32/0212Z TN21/0206Z
BECMG 0208/0210 22010KT
BECMG 0217/0219 06010KT



MET'MAP, your aeronautical weather chart ! - Copyright ORBIFLY December 2007 - Disclaimer

ORBIFLY MET'MAP TEAM :

Programming & Development : Alexandra Zaïnal
Concept & original design : Baudouin d'Aumeries
Assistance for programming : Marc-Olivier Méhu
Technical & hardware support : Manuel Goepfert

Contact : metmap@orbifly.com




SOURCES & CREDITS :

   NOAA